createdAt,value
2022-08-19T00:02:07.707Z,28.60
2022-08-19T00:04:40.944Z,28.60
2022-08-19T00:07:08.592Z,28.50
2022-08-19T00:09:59.402Z,28.50
2022-08-19T00:12:48.814Z,28.50
2022-08-19T00:15:21.857Z,28.50
2022-08-19T00:17:58.244Z,28.50
2022-08-19T00:20:30.990Z,28.40
2022-08-19T00:22:58.783Z,28.40
2022-08-19T00:25:29.934Z,28.40
2022-08-19T00:28:02.937Z,28.40
2022-08-19T00:30:35.733Z,28.50
2022-08-19T00:33:08.280Z,28.50
2022-08-19T00:35:40.533Z,28.50
2022-08-19T00:38:10.426Z,28.50
2022-08-19T00:40:41.874Z,28.50
2022-08-19T00:43:21.331Z,28.50
2022-08-19T00:45:52.958Z,28.60
2022-08-19T00:48:25.465Z,28.50
2022-08-19T00:50:56.556Z,28.50
2022-08-19T00:53:37.670Z,28.50
2022-08-19T00:56:08.321Z,28.40
2022-08-19T00:58:38.245Z,28.30
2022-08-19T01:01:09.225Z,28.30
2022-08-19T01:03:57.117Z,28.20
2022-08-19T01:06:30.730Z,28.30
2022-08-19T01:09:02.452Z,28.30
2022-08-19T01:11:37.718Z,28.30
2022-08-19T01:14:09.698Z,28.20
2022-08-19T01:16:43.685Z,28.20
2022-08-19T01:19:28.953Z,28.00
2022-08-19T01:22:13.104Z,28.00
2022-08-19T01:24:49.729Z,27.90
2022-08-19T01:27:22.696Z,27.80
2022-08-19T01:29:54.797Z,27.80
2022-08-19T01:32:32.323Z,27.80
2022-08-19T01:35:06.957Z,27.80
2022-08-19T01:38:11.344Z,27.80
2022-08-19T01:40:43.399Z,27.80
2022-08-19T01:43:14.089Z,27.80
2022-08-19T01:45:46.596Z,27.80
2022-08-19T01:48:16.169Z,27.80
2022-08-19T01:50:45.151Z,27.80
2022-08-19T01:53:15.777Z,27.80
2022-08-19T01:55:46.812Z,27.80
2022-08-19T01:58:25.185Z,27.80
2022-08-19T02:00:52.762Z,27.80
2022-08-19T02:03:23.336Z,27.80
2022-08-19T02:06:05.745Z,27.80
2022-08-19T02:08:40.409Z,27.90
2022-08-19T02:11:12.085Z,27.90
2022-08-19T02:13:39.696Z,27.90
2022-08-19T02:16:13.408Z,28.00
2022-08-19T02:18:45.573Z,28.00
2022-08-19T02:21:17.909Z,28.10
2022-08-19T02:23:48.127Z,28.00
2022-08-19T02:26:19.700Z,28.00
2022-08-19T02:28:49.856Z,28.00
2022-08-19T02:31:22.551Z,27.90
2022-08-19T02:34:00.573Z,27.80
2022-08-19T02:36:30.851Z,27.70
2022-08-19T02:39:03.114Z,27.60
2022-08-19T02:41:37.481Z,27.50
2022-08-19T02:44:26.615Z,27.50
2022-08-19T02:46:58.990Z,27.40
2022-08-19T02:49:34.798Z,27.30
2022-08-19T02:52:07.964Z,27.30
2022-08-19T02:54:38.339Z,27.30
2022-08-19T02:57:08.969Z,27.20
2022-08-19T02:59:37.254Z,27.20
2022-08-19T03:02:04.675Z,27.10
2022-08-19T03:04:37.216Z,27.10
2022-08-19T03:07:11.053Z,27.10
2022-08-19T03:09:43.329Z,27.00
2022-08-19T03:12:14.580Z,27.00
2022-08-19T03:14:45.109Z,26.90
2022-08-19T03:17:17.110Z,26.80
2022-08-19T03:19:46.911Z,26.80
2022-08-19T03:22:19.379Z,26.80
2022-08-19T03:24:51.957Z,26.70
2022-08-19T03:27:21.564Z,26.70
2022-08-19T03:29:52.004Z,26.60
2022-08-19T03:32:33.060Z,26.60
2022-08-19T03:35:02.737Z,26.60
2022-08-19T03:37:31.338Z,26.50
2022-08-19T03:40:02.326Z,26.50
2022-08-19T03:42:48.861Z,26.40
2022-08-19T03:45:23.292Z,26.30
2022-08-19T03:47:51.822Z,26.30
2022-08-19T03:50:21.455Z,26.30
2022-08-19T03:52:54.192Z,26.30
2022-08-19T03:55:26.148Z,26.20
2022-08-19T03:57:59.224Z,26.20
2022-08-19T04:00:32.408Z,26.20
2022-08-19T04:03:02.969Z,26.20
2022-08-19T04:05:34.053Z,26.20
2022-08-19T04:08:03.861Z,26.30
2022-08-19T04:10:40.702Z,26.30
2022-08-19T04:15:53.921Z,26.30
2022-08-19T04:18:26.133Z,26.20
2022-08-19T04:20:57.996Z,26.20
2022-08-19T04:23:29.242Z,26.20
2022-08-19T04:25:59.137Z,26.20
2022-08-19T04:28:32.221Z,26.20
2022-08-19T04:31:03.960Z,26.30
2022-08-19T04:33:36.070Z,26.20
2022-08-19T04:36:07.266Z,26.20
2022-08-19T04:38:40.448Z,26.20
2022-08-19T04:41:30.062Z,26.20
2022-08-19T04:44:04.135Z,26.30
2022-08-19T04:46:40.065Z,26.30
2022-08-19T04:49:13.193Z,26.40
2022-08-19T04:51:49.227Z,26.30
2022-08-19T04:54:38.315Z,26.30
2022-08-19T04:57:14.617Z,26.40
2022-08-19T04:59:47.705Z,26.40
2022-08-19T05:02:16.914Z,26.40
2022-08-19T05:04:46.946Z,26.30
2022-08-19T05:07:18.104Z,26.40
2022-08-19T05:09:57.999Z,26.40
2022-08-19T05:12:32.229Z,26.50
2022-08-19T05:15:03.859Z,26.50
2022-08-19T05:17:38.389Z,26.60
2022-08-19T05:20:30.017Z,26.70
2022-08-19T05:23:00.254Z,26.70
2022-08-19T05:25:31.176Z,26.70
2022-08-19T05:28:00.710Z,26.70
2022-08-19T05:30:46.838Z,26.70
2022-08-19T05:33:19.188Z,26.80
2022-08-19T05:35:49.192Z,26.80
2022-08-19T05:38:21.148Z,26.90
2022-08-19T05:40:51.069Z,27.00
2022-08-19T05:43:22.438Z,27.10
2022-08-19T05:45:53.917Z,27.20
2022-08-19T05:48:24.301Z,27.30
2022-08-19T05:50:54.092Z,27.30
2022-08-19T05:53:26.508Z,27.30
2022-08-19T05:55:55.997Z,27.40
2022-08-19T05:58:32.287Z,27.40
2022-08-19T06:01:14.495Z,27.50
2022-08-19T06:03:46.616Z,27.70
2022-08-19T06:06:16.058Z,27.80
2022-08-19T06:08:52.142Z,28.00
2022-08-19T06:11:26.574Z,28.10
2022-08-19T06:14:00.463Z,28.20
2022-08-19T06:16:31.366Z,28.40
2022-08-19T06:19:02.008Z,28.50
2022-08-19T06:21:38.165Z,28.60
2022-08-19T06:24:12.953Z,28.60
2022-08-19T06:29:23.399Z,28.80
2022-08-19T06:32:06.771Z,28.90
2022-08-19T06:34:39.814Z,29.00
2022-08-19T06:37:08.841Z,29.10
2022-08-19T06:39:42.555Z,29.20
2022-08-19T06:42:24.020Z,29.30
2022-08-19T06:44:54.012Z,29.40
2022-08-19T06:47:28.984Z,29.40
2022-08-19T06:50:16.711Z,29.40
2022-08-19T06:52:48.883Z,29.50
2022-08-19T06:55:24.215Z,29.60
2022-08-19T06:57:54.892Z,29.70
2022-08-19T07:00:24.106Z,29.70
2022-08-19T07:03:00.203Z,29.90
2022-08-19T07:05:33.316Z,29.90
2022-08-19T07:08:05.095Z,29.90
2022-08-19T07:10:36.497Z,30.00
2022-08-19T07:13:33.212Z,30.10
2022-08-19T07:16:14.678Z,30.10
2022-08-19T07:18:52.997Z,30.10
2022-08-19T07:21:29.604Z,30.20
2022-08-19T07:24:05.361Z,30.30
2022-08-19T07:26:42.403Z,30.30
2022-08-19T07:29:17.520Z,30.40
2022-08-19T07:31:45.966Z,30.50
2022-08-19T07:34:18.465Z,30.50
2022-08-19T07:36:51.343Z,30.50
2022-08-19T07:39:29.199Z,30.50
2022-08-19T07:42:04.440Z,30.50
2022-08-19T07:44:32.234Z,30.60
2022-08-19T07:47:06.629Z,30.50
2022-08-19T07:49:36.417Z,30.60
2022-08-19T07:52:09.917Z,30.60
2022-08-19T07:54:41.889Z,30.80
2022-08-19T07:57:10.253Z,30.80
2022-08-19T07:59:42.637Z,30.80
2022-08-19T08:02:14.345Z,30.80
2022-08-19T08:05:03.431Z,30.80
2022-08-19T08:07:53.647Z,30.90
2022-08-19T08:10:21.607Z,30.90
2022-08-19T08:13:10.087Z,30.90
2022-08-19T08:15:42.965Z,30.90
2022-08-19T08:18:15.523Z,30.90
2022-08-19T08:20:46.440Z,31.00
2022-08-19T08:23:28.955Z,31.00
2022-08-19T08:26:00.731Z,31.00
2022-08-19T08:28:33.725Z,31.10
2022-08-19T08:31:09.482Z,31.10
2022-08-19T08:33:42.545Z,31.20
2022-08-19T08:36:13.785Z,31.20
2022-08-19T08:38:49.501Z,31.20
2022-08-19T08:41:31.187Z,31.30
2022-08-19T08:44:00.416Z,31.30
2022-08-19T08:46:45.131Z,31.40
2022-08-19T08:49:33.055Z,31.50
2022-08-19T08:52:37.054Z,31.60
2022-08-19T08:55:25.940Z,31.60
2022-08-19T08:58:07.960Z,31.60
2022-08-19T09:00:41.872Z,31.60
2022-08-19T09:03:31.624Z,31.70
2022-08-19T09:06:33.624Z,31.80
2022-08-19T09:09:19.318Z,31.90
2022-08-19T09:12:07.628Z,31.90
2022-08-19T09:15:05.961Z,32.00
2022-08-19T09:17:36.250Z,32.00
2022-08-19T09:20:22.139Z,32.10
2022-08-19T09:22:53.828Z,32.10
2022-08-19T09:25:29.671Z,32.20
2022-08-19T09:28:02.598Z,32.20
2022-08-19T09:30:43.165Z,32.30
2022-08-19T09:33:12.274Z,32.30
2022-08-19T09:35:50.217Z,32.40
2022-08-19T09:38:27.953Z,32.40
2022-08-19T09:40:59.602Z,32.50
2022-08-19T09:43:33.680Z,32.50
2022-08-19T09:46:18.003Z,32.50
2022-08-19T09:48:52.542Z,32.60
2022-08-19T09:51:32.637Z,32.70
2022-08-19T09:54:11.189Z,32.80
2022-08-19T09:56:43.522Z,32.90
2022-08-19T09:59:15.693Z,32.90
2022-08-19T10:01:44.426Z,32.90
2022-08-19T10:04:20.570Z,33.00
2022-08-19T10:06:53.539Z,33.00
2022-08-19T10:09:34.264Z,33.10
2022-08-19T10:12:11.257Z,33.20
2022-08-19T10:14:40.756Z,33.20
2022-08-19T10:17:19.238Z,33.30
2022-08-19T10:19:55.028Z,33.30
2022-08-19T10:22:27.076Z,33.30
2022-08-19T10:24:58.051Z,33.40
2022-08-19T10:27:29.490Z,33.40
2022-08-19T10:30:01.598Z,33.40
2022-08-19T10:32:34.556Z,33.50
2022-08-19T10:35:11.868Z,33.60
2022-08-19T10:37:49.834Z,33.70
2022-08-19T10:40:29.098Z,33.70
2022-08-19T10:43:01.205Z,33.70
2022-08-19T10:45:34.072Z,33.70
2022-08-19T10:48:06.920Z,33.80
2022-08-19T10:51:01.519Z,33.90
2022-08-19T10:53:31.279Z,34.00
2022-08-19T10:56:21.028Z,34.00
2022-08-19T10:58:52.771Z,34.10
2022-08-19T11:01:25.723Z,34.10
2022-08-19T11:03:57.268Z,34.20
2022-08-19T11:06:27.148Z,34.20
2022-08-19T11:08:56.525Z,34.20
2022-08-19T11:11:25.712Z,34.30
2022-08-19T11:13:59.352Z,34.30
2022-08-19T11:16:33.469Z,34.40
2022-08-19T11:19:06.603Z,34.50
2022-08-19T11:21:40.209Z,34.50
2022-08-19T11:24:14.693Z,34.60
2022-08-19T11:26:45.516Z,34.60
2022-08-19T11:29:15.972Z,34.70
2022-08-19T11:31:45.874Z,34.80
2022-08-19T11:34:19.434Z,34.80
2022-08-19T11:36:51.909Z,34.80
2022-08-19T11:39:24.488Z,34.90
2022-08-19T11:41:55.324Z,35.00
2022-08-19T11:44:24.042Z,35.00
2022-08-19T11:46:53.695Z,35.10
2022-08-19T11:49:23.547Z,35.20
2022-08-19T11:51:53.794Z,35.20
2022-08-19T11:54:23.492Z,35.30
2022-08-19T11:56:54.234Z,35.40
2022-08-19T11:59:30.819Z,35.40
2022-08-19T12:02:00.669Z,35.60
2022-08-19T12:04:32.903Z,35.70
2022-08-19T12:07:03.515Z,35.80
2022-08-19T12:09:36.523Z,35.80
2022-08-19T12:12:11.205Z,35.90
2022-08-19T12:14:43.992Z,36.10
2022-08-19T12:17:17.303Z,36.10
2022-08-19T12:19:47.906Z,36.20
2022-08-19T12:22:17.941Z,36.30
2022-08-19T12:24:47.141Z,36.40
2022-08-19T12:27:18.266Z,36.50
2022-08-19T12:30:03.748Z,36.70
2022-08-19T12:32:34.545Z,36.80
2022-08-19T12:35:05.269Z,36.90
2022-08-19T12:37:40.357Z,37.00
2022-08-19T12:40:11.999Z,37.20
2022-08-19T12:42:46.894Z,37.30
2022-08-19T12:45:19.524Z,37.50
2022-08-19T12:47:51.999Z,37.70
2022-08-19T12:50:25.608Z,37.80
2022-08-19T12:52:53.505Z,38.10
2022-08-19T12:55:24.801Z,38.20
2022-08-19T12:57:55.303Z,38.40
2022-08-19T13:00:27.309Z,38.50
2022-08-19T13:02:59.357Z,38.70
2022-08-19T13:05:33.410Z,39.10
2022-08-19T13:08:06.213Z,39.50
2022-08-19T13:10:48.410Z,40.20
2022-08-19T13:13:20.088Z,40.90
2022-08-19T13:15:49.008Z,42.20
2022-08-19T13:18:16.607Z,43.30
2022-08-19T13:20:52.501Z,44.20
2022-08-19T13:23:25.402Z,44.90
2022-08-19T13:26:10.385Z,45.70
2022-08-19T13:29:02.242Z,46.70
2022-08-19T13:31:57.252Z,46.70
2022-08-19T13:34:35.996Z,46.90
2022-08-19T13:37:05.361Z,47.70
2022-08-19T13:39:34.734Z,48.30
2022-08-19T13:42:10.010Z,49.00
2022-08-19T13:44:39.842Z,49.70
2022-08-19T13:47:11.582Z,49.70
2022-08-19T13:49:43.212Z,49.00
2022-08-19T13:52:10.390Z,48.70
2022-08-19T13:54:39.575Z,48.50
2022-08-19T13:57:07.554Z,48.90
2022-08-19T13:59:40.683Z,49.00
2022-08-19T14:02:11.854Z,49.30
2022-08-19T14:04:43.054Z,49.50
2022-08-19T14:07:11.546Z,49.60
2022-08-19T14:09:42.941Z,49.50
2022-08-19T14:12:15.912Z,49.10
2022-08-19T14:14:59.858Z,48.90
2022-08-19T14:17:32.413Z,48.60
2022-08-19T14:20:17.502Z,47.70
2022-08-19T14:22:51.748Z,46.80
2022-08-19T14:25:28.409Z,46.40
2022-08-19T14:27:59.312Z,46.30
2022-08-19T14:30:31.224Z,46.30
2022-08-19T14:33:00.554Z,46.20
2022-08-19T14:35:33.352Z,46.00
2022-08-19T14:38:06.772Z,45.70
2022-08-19T14:40:38.080Z,44.80
2022-08-19T14:43:09.709Z,43.50
2022-08-19T14:45:44.113Z,42.50
2022-08-19T14:48:19.374Z,41.70
2022-08-19T14:50:52.273Z,41.10
2022-08-19T14:53:22.093Z,40.50
2022-08-19T14:55:53.744Z,40.00
2022-08-19T14:58:28.292Z,39.80
2022-08-19T15:01:01.157Z,39.60
2022-08-19T15:03:36.614Z,39.20
2022-08-19T15:06:06.132Z,39.00
2022-08-19T15:08:40.317Z,38.60
2022-08-19T15:11:19.136Z,37.90
2022-08-19T15:13:47.742Z,37.10
2022-08-19T15:16:21.000Z,36.50
2022-08-19T15:18:56.757Z,36.10
2022-08-19T15:21:28.341Z,36.00
2022-08-19T15:23:57.853Z,35.70
2022-08-19T15:26:40.975Z,35.60
2022-08-19T15:29:11.465Z,35.40
2022-08-19T15:31:44.578Z,35.10
2022-08-19T15:34:15.755Z,35.00
2022-08-19T15:36:43.560Z,34.90
2022-08-19T15:39:14.460Z,34.70
2022-08-19T15:41:43.617Z,34.50
2022-08-19T15:44:20.488Z,34.30
2022-08-19T15:46:51.140Z,34.20
2022-08-19T15:49:22.686Z,34.20
2022-08-19T15:51:56.650Z,34.20
2022-08-19T15:54:27.982Z,34.00
2022-08-19T15:57:17.969Z,34.10
2022-08-19T16:00:06.452Z,33.80
2022-08-19T16:02:58.947Z,33.50
2022-08-19T16:05:49.976Z,33.20
2022-08-19T16:08:17.642Z,33.00
2022-08-19T16:10:46.853Z,32.90
2022-08-19T16:13:18.295Z,32.80
2022-08-19T16:15:47.257Z,32.70
2022-08-19T16:18:16.208Z,32.60
2022-08-19T16:20:49.104Z,32.50
2022-08-19T16:23:21.167Z,32.40
2022-08-19T16:25:52.002Z,32.30
2022-08-19T16:28:24.023Z,32.20
2022-08-19T16:30:54.634Z,32.20
2022-08-19T16:33:30.462Z,32.00
2022-08-19T16:36:06.891Z,31.90
2022-08-19T16:38:42.035Z,31.80
2022-08-19T16:41:12.295Z,31.80
2022-08-19T16:43:41.578Z,31.70
2022-08-19T16:46:12.664Z,31.50
2022-08-19T16:48:48.592Z,31.40
2022-08-19T16:51:18.245Z,31.30
2022-08-19T16:53:49.484Z,31.20
2022-08-19T16:56:20.420Z,31.00
2022-08-19T16:58:54.437Z,30.80
2022-08-19T17:01:23.380Z,30.70
2022-08-19T17:03:55.893Z,30.40
2022-08-19T17:06:33.655Z,30.00
2022-08-19T17:09:08.899Z,29.60
2022-08-19T17:11:39.301Z,29.40
2022-08-19T17:14:13.114Z,29.20
2022-08-19T17:16:43.475Z,29.20
2022-08-19T17:19:13.139Z,29.20
2022-08-19T17:21:40.969Z,29.20
2022-08-19T17:24:09.211Z,29.10
2022-08-19T17:26:49.956Z,29.20
2022-08-19T17:29:21.261Z,29.30
2022-08-19T17:31:52.105Z,29.40
2022-08-19T17:34:22.816Z,29.60
2022-08-19T17:36:53.980Z,29.80
2022-08-19T17:39:25.205Z,29.90
2022-08-19T17:41:56.362Z,30.10
2022-08-19T17:44:35.601Z,30.20
2022-08-19T17:47:05.177Z,30.10
2022-08-19T17:49:35.716Z,30.30
2022-08-19T17:52:10.087Z,30.30
2022-08-19T17:54:43.117Z,30.50
2022-08-19T17:57:13.350Z,30.60
2022-08-19T17:59:41.026Z,30.70
2022-08-19T18:02:14.151Z,30.70
2022-08-19T18:04:48.773Z,30.90
2022-08-19T18:07:25.754Z,30.90
2022-08-19T18:09:55.846Z,31.00
2022-08-19T18:12:39.688Z,31.10
2022-08-19T18:15:14.446Z,31.00
2022-08-19T18:17:45.268Z,31.00
2022-08-19T18:20:16.930Z,31.00
2022-08-19T18:22:47.750Z,30.90
2022-08-19T18:25:28.321Z,30.90
2022-08-19T18:28:00.589Z,30.80
2022-08-19T18:30:36.610Z,30.80
2022-08-19T18:33:16.034Z,30.60
2022-08-19T18:35:50.708Z,30.50
2022-08-19T18:38:42.355Z,30.50
2022-08-19T18:41:34.553Z,30.30
2022-08-19T18:44:33.237Z,30.30
2022-08-19T18:47:20.815Z,30.30
2022-08-19T18:49:51.689Z,30.30
2022-08-19T18:52:38.132Z,30.50
2022-08-19T18:55:09.864Z,30.50
2022-08-19T18:57:37.774Z,30.50
2022-08-19T19:00:11.077Z,30.60
2022-08-19T19:02:41.318Z,30.60
2022-08-19T19:05:08.981Z,30.50
2022-08-19T19:07:43.114Z,30.50
2022-08-19T19:10:11.886Z,30.60
2022-08-19T19:12:53.104Z,30.60
2022-08-19T19:15:25.605Z,30.60
2022-08-19T19:17:59.224Z,30.60
2022-08-19T19:20:36.655Z,30.70
2022-08-19T19:23:11.329Z,30.60
2022-08-19T19:25:50.004Z,30.60
2022-08-19T19:28:31.521Z,30.50
2022-08-19T19:31:00.095Z,30.30
2022-08-19T19:33:34.789Z,29.90
2022-08-19T19:36:03.113Z,29.90
2022-08-19T19:38:32.852Z,29.60
2022-08-19T19:41:02.356Z,29.60
2022-08-19T19:43:41.021Z,29.60
2022-08-19T19:46:09.401Z,29.60
2022-08-19T19:48:41.468Z,29.60
2022-08-19T19:51:12.954Z,29.60
2022-08-19T19:53:42.341Z,29.60
2022-08-19T19:56:12.433Z,29.60
2022-08-19T19:58:40.333Z,29.60
2022-08-19T20:01:13.557Z,29.80
2022-08-19T20:03:53.298Z,29.80
2022-08-19T20:06:25.349Z,29.90
2022-08-19T20:09:16.310Z,30.00
2022-08-19T20:11:58.965Z,30.00
2022-08-19T20:14:47.605Z,30.00
2022-08-19T20:17:18.896Z,30.10
2022-08-19T20:19:50.855Z,30.10
2022-08-19T20:22:21.463Z,30.10
2022-08-19T20:24:51.174Z,30.10
2022-08-19T20:27:22.823Z,30.00
2022-08-19T20:29:57.931Z,29.90
2022-08-19T20:32:29.357Z,29.60
2022-08-19T20:35:04.650Z,29.60
2022-08-19T20:37:36.352Z,29.60
2022-08-19T20:40:09.055Z,29.40
2022-08-19T20:42:43.765Z,29.30
2022-08-19T20:45:32.178Z,29.20
2022-08-19T20:48:08.971Z,29.30
2022-08-19T20:50:38.235Z,29.30
2022-08-19T20:53:17.206Z,29.30
2022-08-19T20:55:50.136Z,29.50
2022-08-19T20:58:21.712Z,29.50
2022-08-19T21:00:55.199Z,29.50
2022-08-19T21:03:31.070Z,29.60
2022-08-19T21:05:59.235Z,29.60
2022-08-19T21:08:30.346Z,29.60
2022-08-19T21:11:04.789Z,29.60
2022-08-19T21:13:36.635Z,29.50
2022-08-19T21:16:09.595Z,29.50
2022-08-19T21:18:40.360Z,29.50
2022-08-19T21:21:09.601Z,29.40
2022-08-19T21:23:42.118Z,29.30
2022-08-19T21:26:10.113Z,29.30
2022-08-19T21:28:41.481Z,29.40
2022-08-19T21:31:14.100Z,29.30
2022-08-19T21:33:42.411Z,29.30
2022-08-19T21:36:14.665Z,29.30
2022-08-19T21:38:44.309Z,29.40
2022-08-19T21:41:12.111Z,29.40
2022-08-19T21:43:44.431Z,29.50
2022-08-19T21:46:13.236Z,29.50
2022-08-19T21:48:46.332Z,29.50
2022-08-19T21:51:15.926Z,29.50
2022-08-19T21:53:45.318Z,29.50
2022-08-19T21:56:19.980Z,29.50
2022-08-19T21:58:51.963Z,29.60
2022-08-19T22:01:24.967Z,29.50
2022-08-19T22:03:59.149Z,29.50
2022-08-19T22:06:28.459Z,29.60
2022-08-19T22:09:00.454Z,29.50
2022-08-19T22:11:32.078Z,29.60
2022-08-19T22:14:02.036Z,29.60
2022-08-19T22:16:37.001Z,29.60
2022-08-19T22:19:08.512Z,29.60
2022-08-19T22:21:43.240Z,29.70
2022-08-19T22:24:16.593Z,29.60
2022-08-19T22:29:33.824Z,29.60
2022-08-19T22:32:17.793Z,29.60
2022-08-19T22:35:00.843Z,29.60
2022-08-19T22:37:35.029Z,29.60
2022-08-19T22:40:09.453Z,29.60
2022-08-19T22:42:41.722Z,29.70
2022-08-19T22:45:13.843Z,29.60
2022-08-19T22:47:45.350Z,29.70
2022-08-19T22:50:16.645Z,29.70
2022-08-19T22:52:51.708Z,29.70
2022-08-19T22:55:20.809Z,29.70
2022-08-19T22:57:54.970Z,29.70
2022-08-19T23:00:30.474Z,29.70
2022-08-19T23:02:59.229Z,29.70
2022-08-19T23:05:31.252Z,29.80
2022-08-19T23:08:03.690Z,29.80
2022-08-19T23:10:33.272Z,29.70
2022-08-19T23:13:05.327Z,29.70
2022-08-19T23:15:38.657Z,29.60
2022-08-19T23:18:09.143Z,29.60
2022-08-19T23:20:42.690Z,29.50
2022-08-19T23:23:11.893Z,29.50
2022-08-19T23:25:41.059Z,29.50
2022-08-19T23:28:30.557Z,29.50
2022-08-19T23:31:01.530Z,29.60
2022-08-19T23:33:51.521Z,29.60
2022-08-19T23:36:24.852Z,29.60
2022-08-19T23:38:56.619Z,29.60
2022-08-19T23:41:26.793Z,29.60
2022-08-19T23:43:56.874Z,29.60
2022-08-19T23:46:32.055Z,29.60
2022-08-19T23:49:10.345Z,29.30
2022-08-19T23:51:40.228Z,29.10
2022-08-19T23:54:09.231Z,29.00
2022-08-19T23:56:40.838Z,28.90
2022-08-19T23:59:11.609Z,29.00
